Hiawassee, Florida
Current Conditions -  °F | °C
As of 6:53 PM on Sunday 25 Jan 2015 (Local Time) from KORL Reporting Station
Clear Clear  
Wind Chill: 58°   Ceiling: Unl
Heat Index: 58°   Visibility: 10mi
Dew Point: 38°   Wind: 3mph
Humidity: 47%   Direction: 220°SW
Pressure: 30"   Gusts: NA
Location:  28.5867°N, 81.4891°W
Report Text: KORL 252353Z 22003KT 10SM CLR 14/03 A3000 RMK AO2 SLP164 T01440033 10178 20144 53009
Loading
Personal Weather Stations






























Interactive Weather Map New forecast layout! Learn more

10-Day Weather Forecast

Advertisements
Track Severe Weather on mobile